sensor_id;sensor_type;location;lat;lon;timestamp;P1;durP1;ratioP1;P2;durP2;ratioP2
59970;SDS011;45825;45.434;9.116;2023-02-01T00:00:02;69.72;;;45.17;;
59970;SDS011;45825;45.434;9.116;2023-02-01T00:02:29;73.15;;;43.85;;
59970;SDS011;45825;45.434;9.116;2023-02-01T00:04:54;69.13;;;43.53;;
59970;SDS011;45825;45.434;9.116;2023-02-01T00:07:19;77.50;;;46.15;;
59970;SDS011;45825;45.434;9.116;2023-02-01T00:09:45;65.25;;;42.72;;
59970;SDS011;45825;45.434;9.116;2023-02-01T00:12:10;72.05;;;44.15;;
59970;SDS011;45825;45.434;9.116;2023-02-01T00:14:35;67.90;;;42.33;;
59970;SDS011;45825;45.434;9.116;2023-02-01T00:17:04;68.15;;;43.47;;
59970;SDS011;45825;45.434;9.116;2023-02-01T00:19:33;70.85;;;42.83;;
59970;SDS011;45825;45.434;9.116;2023-02-01T00:21:59;69.90;;;42.35;;
59970;SDS011;45825;45.434;9.116;2023-02-01T00:24:24;71.30;;;42.05;;
59970;SDS011;45825;45.434;9.116;2023-02-01T00:26:50;64.40;;;42.05;;
59970;SDS011;45825;45.434;9.116;2023-02-01T00:29:16;67.97;;;42.72;;
59970;SDS011;45825;45.434;9.116;2023-02-01T00:31:44;69.03;;;42.08;;
59970;SDS011;45825;45.434;9.116;2023-02-01T00:34:14;70.22;;;42.22;;
59970;SDS011;45825;45.434;9.116;2023-02-01T00:36:40;67.43;;;42.40;;
59970;SDS011;45825;45.434;9.116;2023-02-01T00:39:07;64.53;;;39.15;;
59970;SDS011;45825;45.434;9.116;2023-02-01T00:41:32;63.83;;;39.67;;
59970;SDS011;45825;45.434;9.116;2023-02-01T00:43:58;65.00;;;39.72;;
59970;SDS011;45825;45.434;9.116;2023-02-01T00:46:23;60.60;;;38.88;;
59970;SDS011;45825;45.434;9.116;2023-02-01T00:48:49;64.63;;;40.67;;
59970;SDS011;45825;45.434;9.116;2023-02-01T00:51:16;61.28;;;39.67;;
59970;SDS011;45825;45.434;9.116;2023-02-01T00:53:43;62.22;;;39.28;;
59970;SDS011;45825;45.434;9.116;2023-02-01T00:56:09;61.83;;;39.72;;
59970;SDS011;45825;45.434;9.116;2023-02-01T00:58:34;58.35;;;38.00;;
59970;SDS011;45825;45.434;9.116;2023-02-01T01:01:01;61.67;;;38.78;;
59970;SDS011;45825;45.434;9.116;2023-02-01T01:03:47;64.45;;;39.72;;
59970;SDS011;45825;45.434;9.116;2023-02-01T01:06:19;63.17;;;39.47;;
59970;SDS011;45825;45.434;9.116;2023-02-01T01:08:46;65.13;;;39.88;;
59970;SDS011;45825;45.434;9.116;2023-02-01T01:11:12;57.47;;;38.13;;
59970;SDS011;45825;45.434;9.116;2023-02-01T01:13:42;65.38;;;40.10;;
59970;SDS011;45825;45.434;9.116;2023-02-01T01:16:09;58.08;;;38.42;;
59970;SDS011;45825;45.434;9.116;2023-02-01T01:18:35;63.97;;;39.80;;
59970;SDS011;45825;45.434;9.116;2023-02-01T01:21:03;59.22;;;38.05;;
59970;SDS011;45825;45.434;9.116;2023-02-01T01:23:30;64.97;;;39.50;;
59970;SDS011;45825;45.434;9.116;2023-02-01T01:25:55;57.85;;;36.38;;
59970;SDS011;45825;45.434;9.116;2023-02-01T01:28:21;61.10;;;39.38;;
59970;SDS011;45825;45.434;9.116;2023-02-01T01:30:47;59.55;;;37.72;;
59970;SDS011;45825;45.434;9.116;2023-02-01T01:33:12;58.65;;;36.75;;
59970;SDS011;45825;45.434;9.116;2023-02-01T01:35:37;60.25;;;37.20;;
59970;SDS011;45825;45.434;9.116;2023-02-01T01:38:03;56.30;;;35.90;;
59970;SDS011;45825;45.434;9.116;2023-02-01T01:40:28;54.20;;;36.38;;
59970;SDS011;45825;45.434;9.116;2023-02-01T01:42:55;56.33;;;35.72;;
59970;SDS011;45825;45.434;9.116;2023-02-01T01:48:04;55.72;;;35.20;;
59970;SDS011;45825;45.434;9.116;2023-02-01T01:50:40;52.85;;;33.55;;
59970;SDS011;45825;45.434;9.116;2023-02-01T01:53:07;52.28;;;33.78;;
59970;SDS011;45825;45.434;9.116;2023-02-01T01:55:37;51.42;;;33.92;;
59970;SDS011;45825;45.434;9.116;2023-02-01T01:58:10;49.55;;;31.73;;
59970;SDS011;45825;45.434;9.116;2023-02-01T02:00:39;51.47;;;32.15;;
59970;SDS011;45825;45.434;9.116;2023-02-01T02:03:07;51.28;;;31.27;;
59970;SDS011;45825;45.434;9.116;2023-02-01T02:05:38;47.08;;;30.27;;
59970;SDS011;45825;45.434;9.116;2023-02-01T02:08:04;49.42;;;31.83;;
59970;SDS011;45825;45.434;9.116;2023-02-01T02:10:29;50.92;;;30.17;;
59970;SDS011;45825;45.434;9.116;2023-02-01T02:13:14;50.53;;;30.92;;
59970;SDS011;45825;45.434;9.116;2023-02-01T02:15:43;50.70;;;31.05;;
59970;SDS011;45825;45.434;9.116;2023-02-01T02:19:08;45.05;;;29.67;;
59970;SDS011;45825;45.434;9.116;2023-02-01T02:21:30;47.88;;;30.27;;
59970;SDS011;45825;45.434;9.116;2023-02-01T02:24:03;48.83;;;29.92;;
59970;SDS011;45825;45.434;9.116;2023-02-01T02:26:46;45.78;;;29.33;;
59970;SDS011;45825;45.434;9.116;2023-02-01T02:31:43;46.63;;;29.45;;
59970;SDS011;45825;45.434;9.116;2023-02-01T02:39:46;42.22;;;27.10;;
59970;SDS011;45825;45.434;9.116;2023-02-01T02:48:29;44.15;;;26.67;;
59970;SDS011;45825;45.434;9.116;2023-02-01T02:54:25;44.85;;;27.48;;
59970;SDS011;45825;45.434;9.116;2023-02-01T02:57:12;39.78;;;25.00;;
59970;SDS011;45825;45.434;9.116;2023-02-01T03:00:00;41.45;;;26.48;;
59970;SDS011;45825;45.434;9.116;2023-02-01T03:02:47;41.35;;;26.02;;
59970;SDS011;45825;45.434;9.116;2023-02-01T03:05:33;38.92;;;26.08;;
59970;SDS011;45825;45.434;9.116;2023-02-01T03:16:09;36.67;;;23.88;;
59970;SDS011;45825;45.434;9.116;2023-02-01T03:21:24;34.28;;;23.75;;
59970;SDS011;45825;45.434;9.116;2023-02-01T03:23:55;36.25;;;22.88;;
59970;SDS011;45825;45.434;9.116;2023-02-01T03:26:25;35.38;;;22.58;;
59970;SDS011;45825;45.434;9.116;2023-02-01T03:28:54;40.10;;;23.00;;
59970;SDS011;45825;45.434;9.116;2023-02-01T03:31:25;32.35;;;22.50;;
59970;SDS011;45825;45.434;9.116;2023-02-01T03:33:52;34.95;;;22.80;;
59970;SDS011;45825;45.434;9.116;2023-02-01T03:36:20;36.40;;;22.73;;
59970;SDS011;45825;45.434;9.116;2023-02-01T03:39:02;36.38;;;22.42;;
59970;SDS011;45825;45.434;9.116;2023-02-01T03:44:11;33.60;;;21.58;;
59970;SDS011;45825;45.434;9.116;2023-02-01T03:49:27;32.72;;;21.33;;
59970;SDS011;45825;45.434;9.116;2023-02-01T03:51:55;32.95;;;20.95;;
59970;SDS011;45825;45.434;9.116;2023-02-01T03:54:23;31.92;;;21.10;;
59970;SDS011;45825;45.434;9.116;2023-02-01T03:56:50;32.42;;;20.92;;
59970;SDS011;45825;45.434;9.116;2023-02-01T03:59:17;30.88;;;20.45;;
59970;SDS011;45825;45.434;9.116;2023-02-01T04:01:43;31.15;;;20.13;;
59970;SDS011;45825;45.434;9.116;2023-02-01T04:04:09;31.98;;;21.23;;
59970;SDS011;45825;45.434;9.116;2023-02-01T04:06:35;31.52;;;19.75;;
59970;SDS011;45825;45.434;9.116;2023-02-01T04:09:00;33.33;;;20.60;;
59970;SDS011;45825;45.434;9.116;2023-02-01T04:11:26;29.25;;;19.30;;
59970;SDS011;45825;45.434;9.116;2023-02-01T04:13:52;30.90;;;19.73;;
59970;SDS011;45825;45.434;9.116;2023-02-01T04:16:18;32.33;;;19.83;;
59970;SDS011;45825;45.434;9.116;2023-02-01T04:18:43;32.83;;;20.55;;
59970;SDS011;45825;45.434;9.116;2023-02-01T04:21:08;33.42;;;20.92;;
59970;SDS011;45825;45.434;9.116;2023-02-01T04:23:34;33.13;;;19.40;;
59970;SDS011;45825;45.434;9.116;2023-02-01T04:26:00;30.70;;;19.90;;
59970;SDS011;45825;45.434;9.116;2023-02-01T04:28:26;31.08;;;19.00;;
59970;SDS011;45825;45.434;9.116;2023-02-01T04:30:51;30.15;;;18.88;;
59970;SDS011;45825;45.434;9.116;2023-02-01T04:33:17;29.48;;;18.35;;
59970;SDS011;45825;45.434;9.116;2023-02-01T04:35:42;36.08;;;19.40;;
59970;SDS011;45825;45.434;9.116;2023-02-01T04:38:07;30.77;;;19.25;;
59970;SDS011;45825;45.434;9.116;2023-02-01T04:40:33;31.15;;;19.60;;
59970;SDS011;45825;45.434;9.116;2023-02-01T04:42:58;32.33;;;19.50;;
59970;SDS011;45825;45.434;9.116;2023-02-01T04:45:25;28.38;;;18.05;;
59970;SDS011;45825;45.434;9.116;2023-02-01T04:47:51;28.70;;;18.73;;
59970;SDS011;45825;45.434;9.116;2023-02-01T04:50:16;29.85;;;18.65;;
59970;SDS011;45825;45.434;9.116;2023-02-01T04:52:41;29.33;;;18.90;;
59970;SDS011;45825;45.434;9.116;2023-02-01T04:55:07;31.60;;;18.60;;
59970;SDS011;45825;45.434;9.116;2023-02-01T04:57:33;30.95;;;18.42;;
59970;SDS011;45825;45.434;9.116;2023-02-01T04:59:58;32.80;;;19.63;;
59970;SDS011;45825;45.434;9.116;2023-02-01T05:02:23;28.70;;;18.13;;
59970;SDS011;45825;45.434;9.116;2023-02-01T05:04:49;29.42;;;19.45;;
59970;SDS011;45825;45.434;9.116;2023-02-01T05:07:15;32.17;;;18.55;;
59970;SDS011;45825;45.434;9.116;2023-02-01T05:09:40;30.55;;;18.38;;
59970;SDS011;45825;45.434;9.116;2023-02-01T05:12:06;30.35;;;18.65;;
59970;SDS011;45825;45.434;9.116;2023-02-01T05:14:50;26.60;;;17.50;;
59970;SDS011;45825;45.434;9.116;2023-02-01T05:17:15;33.10;;;18.42;;
59970;SDS011;45825;45.434;9.116;2023-02-01T05:19:40;33.63;;;18.45;;
59970;SDS011;45825;45.434;9.116;2023-02-01T05:22:06;29.58;;;18.35;;
59970;SDS011;45825;45.434;9.116;2023-02-01T05:24:31;36.58;;;17.73;;
59970;SDS011;45825;45.434;9.116;2023-02-01T05:26:56;28.90;;;17.52;;
59970;SDS011;45825;45.434;9.116;2023-02-01T05:29:22;27.40;;;17.40;;
59970;SDS011;45825;45.434;9.116;2023-02-01T05:31:48;33.60;;;18.02;;
59970;SDS011;45825;45.434;9.116;2023-02-01T05:34:13;32.78;;;17.23;;
59970;SDS011;45825;45.434;9.116;2023-02-01T05:36:39;26.08;;;17.25;;
59970;SDS011;45825;45.434;9.116;2023-02-01T05:39:05;34.67;;;16.98;;
59970;SDS011;45825;45.434;9.116;2023-02-01T05:41:30;28.70;;;18.70;;
59970;SDS011;45825;45.434;9.116;2023-02-01T05:43:56;28.60;;;17.45;;
59970;SDS011;45825;45.434;9.116;2023-02-01T05:46:21;29.40;;;16.75;;
59970;SDS011;45825;45.434;9.116;2023-02-01T05:48:46;29.60;;;16.92;;
59970;SDS011;45825;45.434;9.116;2023-02-01T05:51:12;27.02;;;16.70;;
59970;SDS011;45825;45.434;9.116;2023-02-01T05:53:37;27.92;;;16.70;;
59970;SDS011;45825;45.434;9.116;2023-02-01T05:56:03;28.90;;;16.98;;
59970;SDS011;45825;45.434;9.116;2023-02-01T05:58:29;31.92;;;17.42;;
59970;SDS011;45825;45.434;9.116;2023-02-01T06:00:54;32.97;;;19.17;;
59970;SDS011;45825;45.434;9.116;2023-02-01T06:03:20;31.77;;;19.38;;
59970;SDS011;45825;45.434;9.116;2023-02-01T06:05:46;28.52;;;17.60;;
59970;SDS011;45825;45.434;9.116;2023-02-01T06:08:12;32.90;;;18.08;;
59970;SDS011;45825;45.434;9.116;2023-02-01T06:10:38;31.10;;;17.45;;
59970;SDS011;45825;45.434;9.116;2023-02-01T06:13:04;28.27;;;17.23;;
59970;SDS011;45825;45.434;9.116;2023-02-01T06:15:30;28.77;;;17.35;;
59970;SDS011;45825;45.434;9.116;2023-02-01T06:17:56;28.23;;;17.88;;
59970;SDS011;45825;45.434;9.116;2023-02-01T06:20:21;29.85;;;18.00;;
59970;SDS011;45825;45.434;9.116;2023-02-01T06:22:47;30.80;;;18.25;;
59970;SDS011;45825;45.434;9.116;2023-02-01T06:25:12;29.73;;;17.10;;
59970;SDS011;45825;45.434;9.116;2023-02-01T06:27:38;30.65;;;17.77;;
59970;SDS011;45825;45.434;9.116;2023-02-01T06:30:04;31.17;;;18.02;;
59970;SDS011;45825;45.434;9.116;2023-02-01T06:32:31;31.23;;;17.95;;
59970;SDS011;45825;45.434;9.116;2023-02-01T06:34:56;29.05;;;18.42;;
59970;SDS011;45825;45.434;9.116;2023-02-01T06:37:22;31.80;;;17.90;;
59970;SDS011;45825;45.434;9.116;2023-02-01T06:39:50;29.80;;;18.50;;
59970;SDS011;45825;45.434;9.116;2023-02-01T06:42:15;30.50;;;18.88;;
59970;SDS011;45825;45.434;9.116;2023-02-01T06:44:41;32.47;;;18.52;;
59970;SDS011;45825;45.434;9.116;2023-02-01T06:47:06;30.25;;;18.50;;
59970;SDS011;45825;45.434;9.116;2023-02-01T06:49:32;36.63;;;18.67;;
59970;SDS011;45825;45.434;9.116;2023-02-01T06:51:57;30.10;;;18.20;;
59970;SDS011;45825;45.434;9.116;2023-02-01T06:54:25;32.60;;;19.05;;
59970;SDS011;45825;45.434;9.116;2023-02-01T06:56:50;29.55;;;18.63;;
59970;SDS011;45825;45.434;9.116;2023-02-01T06:59:16;32.70;;;19.05;;
59970;SDS011;45825;45.434;9.116;2023-02-01T07:01:41;33.03;;;20.05;;
59970;SDS011;45825;45.434;9.116;2023-02-01T07:04:08;36.88;;;19.15;;
59970;SDS011;45825;45.434;9.116;2023-02-01T07:06:35;30.98;;;19.00;;
59970;SDS011;45825;45.434;9.116;2023-02-01T07:09:00;33.40;;;20.52;;
59970;SDS011;45825;45.434;9.116;2023-02-01T07:11:26;32.15;;;18.75;;
59970;SDS011;45825;45.434;9.116;2023-02-01T07:13:53;35.92;;;19.98;;
59970;SDS011;45825;45.434;9.116;2023-02-01T07:16:18;37.40;;;21.55;;
59970;SDS011;45825;45.434;9.116;2023-02-01T07:18:45;31.00;;;19.85;;
59970;SDS011;45825;45.434;9.116;2023-02-01T07:21:11;34.88;;;20.67;;
59970;SDS011;45825;45.434;9.116;2023-02-01T07:23:37;38.45;;;19.92;;
59970;SDS011;45825;45.434;9.116;2023-02-01T07:26:04;33.92;;;21.02;;
59970;SDS011;45825;45.434;9.116;2023-02-01T07:28:31;36.42;;;20.17;;
59970;SDS011;45825;45.434;9.116;2023-02-01T07:31:04;37.92;;;19.95;;
59970;SDS011;45825;45.434;9.116;2023-02-01T07:33:31;34.15;;;19.95;;
59970;SDS011;45825;45.434;9.116;2023-02-01T07:35:56;36.05;;;19.77;;
59970;SDS011;45825;45.434;9.116;2023-02-01T07:38:22;32.20;;;19.98;;
59970;SDS011;45825;45.434;9.116;2023-02-01T07:40:48;39.38;;;19.70;;
59970;SDS011;45825;45.434;9.116;2023-02-01T07:43:14;31.20;;;19.42;;
59970;SDS011;45825;45.434;9.116;2023-02-01T07:45:40;32.50;;;19.98;;
59970;SDS011;45825;45.434;9.116;2023-02-01T07:48:05;36.65;;;19.52;;
59970;SDS011;45825;45.434;9.116;2023-02-01T07:50:30;28.50;;;17.70;;
59970;SDS011;45825;45.434;9.116;2023-02-01T07:52:58;32.47;;;18.77;;
59970;SDS011;45825;45.434;9.116;2023-02-01T07:55:25;32.00;;;19.02;;
59970;SDS011;45825;45.434;9.116;2023-02-01T07:57:51;34.15;;;19.63;;
59970;SDS011;45825;45.434;9.116;2023-02-01T08:00:17;33.38;;;18.33;;
59970;SDS011;45825;45.434;9.116;2023-02-01T08:03:02;31.52;;;18.13;;
59970;SDS011;45825;45.434;9.116;2023-02-01T08:05:29;31.50;;;17.55;;
59970;SDS011;45825;45.434;9.116;2023-02-01T08:07:54;28.45;;;18.20;;
59970;SDS011;45825;45.434;9.116;2023-02-01T08:10:19;37.10;;;20.98;;
59970;SDS011;45825;45.434;9.116;2023-02-01T08:12:45;31.27;;;20.90;;
59970;SDS011;45825;45.434;9.116;2023-02-01T08:15:14;29.88;;;17.65;;
59970;SDS011;45825;45.434;9.116;2023-02-01T08:17:40;26.90;;;16.60;;
59970;SDS011;45825;45.434;9.116;2023-02-01T08:20:11;28.80;;;17.17;;
59970;SDS011;45825;45.434;9.116;2023-02-01T08:22:38;27.60;;;16.95;;
59970;SDS011;45825;45.434;9.116;2023-02-01T08:25:04;29.00;;;15.95;;
59970;SDS011;45825;45.434;9.116;2023-02-01T08:27:29;27.92;;;16.48;;
59970;SDS011;45825;45.434;9.116;2023-02-01T08:29:58;27.90;;;15.68;;
59970;SDS011;45825;45.434;9.116;2023-02-01T08:32:24;27.65;;;16.08;;
59970;SDS011;45825;45.434;9.116;2023-02-01T08:34:49;28.48;;;16.20;;
59970;SDS011;45825;45.434;9.116;2023-02-01T08:37:15;27.70;;;16.35;;
59970;SDS011;45825;45.434;9.116;2023-02-01T08:39:40;32.63;;;17.08;;
59970;SDS011;45825;45.434;9.116;2023-02-01T08:42:08;30.95;;;17.17;;
59970;SDS011;45825;45.434;9.116;2023-02-01T08:44:52;27.42;;;16.38;;
59970;SDS011;45825;45.434;9.116;2023-02-01T08:47:17;29.95;;;16.35;;
59970;SDS011;45825;45.434;9.116;2023-02-01T08:49:43;33.13;;;17.13;;
59970;SDS011;45825;45.434;9.116;2023-02-01T08:52:08;27.23;;;16.25;;
59970;SDS011;45825;45.434;9.116;2023-02-01T08:54:33;27.98;;;16.45;;
59970;SDS011;45825;45.434;9.116;2023-02-01T08:56:59;27.20;;;15.88;;
59970;SDS011;45825;45.434;9.116;2023-02-01T08:59:24;29.20;;;15.52;;
59970;SDS011;45825;45.434;9.116;2023-02-01T09:01:49;27.50;;;16.15;;
59970;SDS011;45825;45.434;9.116;2023-02-01T09:04:14;31.92;;;15.55;;
59970;SDS011;45825;45.434;9.116;2023-02-01T09:06:40;26.33;;;15.75;;
59970;SDS011;45825;45.434;9.116;2023-02-01T09:09:06;28.92;;;15.25;;
59970;SDS011;45825;45.434;9.116;2023-02-01T09:11:31;30.42;;;17.88;;
59970;SDS011;45825;45.434;9.116;2023-02-01T09:13:57;31.75;;;16.95;;
59970;SDS011;45825;45.434;9.116;2023-02-01T09:16:22;30.88;;;18.85;;
59970;SDS011;45825;45.434;9.116;2023-02-01T09:18:48;27.92;;;17.90;;
59970;SDS011;45825;45.434;9.116;2023-02-01T09:21:13;35.67;;;18.30;;
59970;SDS011;45825;45.434;9.116;2023-02-01T09:23:38;30.63;;;19.15;;
59970;SDS011;45825;45.434;9.116;2023-02-01T09:26:04;32.15;;;19.38;;
59970;SDS011;45825;45.434;9.116;2023-02-01T09:28:30;35.83;;;19.10;;
59970;SDS011;45825;45.434;9.116;2023-02-01T09:30:59;33.58;;;19.95;;
59970;SDS011;45825;45.434;9.116;2023-02-01T09:33:26;28.50;;;18.75;;
59970;SDS011;45825;45.434;9.116;2023-02-01T09:35:55;30.20;;;19.60;;
59970;SDS011;45825;45.434;9.116;2023-02-01T09:38:22;31.92;;;18.60;;
59970;SDS011;45825;45.434;9.116;2023-02-01T09:40:47;32.33;;;19.00;;
59970;SDS011;45825;45.434;9.116;2023-02-01T09:48:45;30.02;;;17.80;;
59970;SDS011;45825;45.434;9.116;2023-02-01T09:51:14;33.60;;;19.25;;
59970;SDS011;45825;45.434;9.116;2023-02-01T09:53:44;30.77;;;19.77;;
59970;SDS011;45825;45.434;9.116;2023-02-01T09:56:21;33.10;;;19.58;;
59970;SDS011;45825;45.434;9.116;2023-02-01T10:01:33;34.00;;;18.52;;
59970;SDS011;45825;45.434;9.116;2023-02-01T10:04:07;29.08;;;17.60;;
59970;SDS011;45825;45.434;9.116;2023-02-01T10:23:39;30.58;;;16.35;;
59970;SDS011;45825;45.434;9.116;2023-02-01T10:28:37;25.10;;;15.30;;
59970;SDS011;45825;45.434;9.116;2023-02-01T10:31:03;24.63;;;15.32;;
59970;SDS011;45825;45.434;9.116;2023-02-01T10:33:32;25.35;;;14.73;;
59970;SDS011;45825;45.434;9.116;2023-02-01T10:35:59;23.77;;;13.98;;
59970;SDS011;45825;45.434;9.116;2023-02-01T10:38:28;23.35;;;14.07;;
59970;SDS011;45825;45.434;9.116;2023-02-01T10:40:55;25.35;;;14.23;;
59970;SDS011;45825;45.434;9.116;2023-02-01T10:43:26;22.42;;;14.13;;
59970;SDS011;45825;45.434;9.116;2023-02-01T10:45:51;20.00;;;11.30;;
59970;SDS011;45825;45.434;9.116;2023-02-01T10:48:17;18.90;;;10.30;;
59970;SDS011;45825;45.434;9.116;2023-02-01T10:50:48;21.02;;;11.93;;
59970;SDS011;45825;45.434;9.116;2023-02-01T10:53:39;20.02;;;10.70;;
59970;SDS011;45825;45.434;9.116;2023-02-01T10:56:11;19.80;;;10.53;;
59970;SDS011;45825;45.434;9.116;2023-02-01T10:58:44;19.48;;;10.65;;
59970;SDS011;45825;45.434;9.116;2023-02-01T11:01:26;18.23;;;10.05;;
59970;SDS011;45825;45.434;9.116;2023-02-01T11:04:02;18.05;;;9.88;;
59970;SDS011;45825;45.434;9.116;2023-02-01T11:06:47;17.35;;;9.25;;
59970;SDS011;45825;45.434;9.116;2023-02-01T11:09:18;15.35;;;9.20;;
59970;SDS011;45825;45.434;9.116;2023-02-01T11:16:51;18.00;;;10.10;;
59970;SDS011;45825;45.434;9.116;2023-02-01T11:19:23;15.68;;;9.02;;
59970;SDS011;45825;45.434;9.116;2023-02-01T11:21:49;15.27;;;9.10;;
59970;SDS011;45825;45.434;9.116;2023-02-01T11:24:23;13.27;;;7.78;;
59970;SDS011;45825;45.434;9.116;2023-02-01T11:26:54;14.05;;;7.85;;
59970;SDS011;45825;45.434;9.116;2023-02-01T11:29:21;16.20;;;8.45;;
59970;SDS011;45825;45.434;9.116;2023-02-01T11:31:54;14.07;;;8.10;;
59970;SDS011;45825;45.434;9.116;2023-02-01T11:34:24;16.83;;;8.27;;
59970;SDS011;45825;45.434;9.116;2023-02-01T11:36:53;15.70;;;8.45;;
59970;SDS011;45825;45.434;9.116;2023-02-01T11:39:27;12.85;;;8.60;;
59970;SDS011;45825;45.434;9.116;2023-02-01T11:42:05;14.07;;;8.23;;
59970;SDS011;45825;45.434;9.116;2023-02-01T11:44:42;15.15;;;8.48;;
59970;SDS011;45825;45.434;9.116;2023-02-01T11:49:50;15.40;;;9.02;;
59970;SDS011;45825;45.434;9.116;2023-02-01T12:17:20;13.82;;;6.55;;
59970;SDS011;45825;45.434;9.116;2023-02-01T12:25:42;11.90;;;5.95;;
59970;SDS011;45825;45.434;9.116;2023-02-01T12:28:33;13.88;;;5.20;;
59970;SDS011;45825;45.434;9.116;2023-02-01T12:37:28;12.27;;;5.45;;
59970;SDS011;45825;45.434;9.116;2023-02-01T12:43:04;12.20;;;6.13;;
59970;SDS011;45825;45.434;9.116;2023-02-01T12:45:43;11.93;;;5.38;;
59970;SDS011;45825;45.434;9.116;2023-02-01T12:50:49;10.07;;;5.30;;
59970;SDS011;45825;45.434;9.116;2023-02-01T12:55:49;13.43;;;5.95;;
59970;SDS011;45825;45.434;9.116;2023-02-01T12:58:31;10.80;;;5.32;;
59970;SDS011;45825;45.434;9.116;2023-02-01T13:01:06;10.88;;;5.03;;
59970;SDS011;45825;45.434;9.116;2023-02-01T13:09:20;10.23;;;4.88;;
59970;SDS011;45825;45.434;9.116;2023-02-01T13:17:46;10.25;;;4.40;;
59970;SDS011;45825;45.434;9.116;2023-02-01T13:20:17;9.35;;;4.20;;
59970;SDS011;45825;45.434;9.116;2023-02-01T13:23:03;9.30;;;4.45;;
59970;SDS011;45825;45.434;9.116;2023-02-01T13:25:35;9.32;;;4.43;;
59970;SDS011;45825;45.434;9.116;2023-02-01T13:28:11;8.93;;;3.75;;
59970;SDS011;45825;45.434;9.116;2023-02-01T13:33:58;10.27;;;4.20;;
59970;SDS011;45825;45.434;9.116;2023-02-01T13:37:01;10.38;;;4.20;;
59970;SDS011;45825;45.434;9.116;2023-02-01T13:39:51;10.00;;;4.10;;
59970;SDS011;45825;45.434;9.116;2023-02-01T13:42:30;8.48;;;3.50;;
59970;SDS011;45825;45.434;9.116;2023-02-01T13:47:35;10.02;;;3.85;;
59970;SDS011;45825;45.434;9.116;2023-02-01T13:53:03;9.75;;;4.25;;
59970;SDS011;45825;45.434;9.116;2023-02-01T13:55:43;10.25;;;4.20;;
59970;SDS011;45825;45.434;9.116;2023-02-01T13:58:28;10.80;;;4.15;;
59970;SDS011;45825;45.434;9.116;2023-02-01T14:03:49;9.15;;;3.42;;
59970;SDS011;45825;45.434;9.116;2023-02-01T14:06:34;8.82;;;3.40;;
59970;SDS011;45825;45.434;9.116;2023-02-01T14:14:52;8.88;;;3.40;;
59970;SDS011;45825;45.434;9.116;2023-02-01T14:19:24;8.33;;;3.10;;
59970;SDS011;45825;45.434;9.116;2023-02-01T14:21:55;9.48;;;3.25;;
59970;SDS011;45825;45.434;9.116;2023-02-01T14:24:26;11.80;;;3.47;;
59970;SDS011;45825;45.434;9.116;2023-02-01T14:26:54;8.77;;;3.20;;
59970;SDS011;45825;45.434;9.116;2023-02-01T14:29:25;9.75;;;3.15;;
59970;SDS011;45825;45.434;9.116;2023-02-01T14:42:17;9.25;;;3.17;;
59970;SDS011;45825;45.434;9.116;2023-02-01T14:47:52;10.48;;;3.58;;
59970;SDS011;45825;45.434;9.116;2023-02-01T14:58:06;13.48;;;4.20;;
59970;SDS011;45825;45.434;9.116;2023-02-01T15:00:52;10.35;;;3.28;;
59970;SDS011;45825;45.434;9.116;2023-02-01T15:03:25;10.63;;;4.00;;
59970;SDS011;45825;45.434;9.116;2023-02-01T15:05:55;13.13;;;4.72;;
59970;SDS011;45825;45.434;9.116;2023-02-01T15:08:26;12.65;;;4.72;;
59970;SDS011;45825;45.434;9.116;2023-02-01T15:10:55;11.57;;;5.05;;
59970;SDS011;45825;45.434;9.116;2023-02-01T15:13:24;12.40;;;5.43;;
59970;SDS011;45825;45.434;9.116;2023-02-01T15:18:40;11.98;;;5.90;;
59970;SDS011;45825;45.434;9.116;2023-02-01T15:21:06;13.35;;;5.90;;
59970;SDS011;45825;45.434;9.116;2023-02-01T15:23:40;13.63;;;6.22;;
59970;SDS011;45825;45.434;9.116;2023-02-01T15:26:05;14.68;;;6.88;;
59970;SDS011;45825;45.434;9.116;2023-02-01T15:28:31;15.38;;;6.45;;
59970;SDS011;45825;45.434;9.116;2023-02-01T15:31:00;15.57;;;7.20;;
59970;SDS011;45825;45.434;9.116;2023-02-01T15:33:30;13.93;;;6.82;;
59970;SDS011;45825;45.434;9.116;2023-02-01T15:46:35;12.75;;;6.07;;
59970;SDS011;45825;45.434;9.116;2023-02-01T15:49:03;13.80;;;6.38;;
59970;SDS011;45825;45.434;9.116;2023-02-01T15:51:31;13.02;;;5.60;;
59970;SDS011;45825;45.434;9.116;2023-02-01T15:56:38;16.38;;;6.38;;
59970;SDS011;45825;45.434;9.116;2023-02-01T15:59:11;17.83;;;5.60;;
59970;SDS011;45825;45.434;9.116;2023-02-01T16:01:40;14.35;;;6.03;;
59970;SDS011;45825;45.434;9.116;2023-02-01T16:09:14;15.00;;;6.40;;
59970;SDS011;45825;45.434;9.116;2023-02-01T16:11:46;11.68;;;6.22;;
59970;SDS011;45825;45.434;9.116;2023-02-01T16:14:11;14.55;;;6.50;;
59970;SDS011;45825;45.434;9.116;2023-02-01T16:16:37;13.35;;;6.05;;
59970;SDS011;45825;45.434;9.116;2023-02-01T16:19:02;14.52;;;6.38;;
59970;SDS011;45825;45.434;9.116;2023-02-01T16:21:28;16.55;;;6.25;;
59970;SDS011;45825;45.434;9.116;2023-02-01T16:23:53;14.43;;;6.60;;
59970;SDS011;45825;45.434;9.116;2023-02-01T16:26:19;12.45;;;6.18;;
59970;SDS011;45825;45.434;9.116;2023-02-01T16:28:45;16.88;;;6.50;;
59970;SDS011;45825;45.434;9.116;2023-02-01T16:31:12;16.40;;;7.65;;
59970;SDS011;45825;45.434;9.116;2023-02-01T16:33:51;16.73;;;7.53;;
59970;SDS011;45825;45.434;9.116;2023-02-01T16:36:16;16.58;;;7.68;;
59970;SDS011;45825;45.434;9.116;2023-02-01T16:38:43;13.45;;;6.97;;
59970;SDS011;45825;45.434;9.116;2023-02-01T16:41:11;19.38;;;7.13;;
59970;SDS011;45825;45.434;9.116;2023-02-01T16:43:38;17.48;;;7.10;;
59970;SDS011;45825;45.434;9.116;2023-02-01T16:46:04;15.77;;;7.60;;
59970;SDS011;45825;45.434;9.116;2023-02-01T16:48:31;18.80;;;7.72;;
59970;SDS011;45825;45.434;9.116;2023-02-01T16:51:00;16.98;;;7.78;;
59970;SDS011;45825;45.434;9.116;2023-02-01T16:53:28;16.60;;;7.70;;
59970;SDS011;45825;45.434;9.116;2023-02-01T16:55:56;14.25;;;7.60;;
59970;SDS011;45825;45.434;9.116;2023-02-01T16:58:22;18.95;;;8.40;;
59970;SDS011;45825;45.434;9.116;2023-02-01T17:00:48;17.58;;;7.82;;
59970;SDS011;45825;45.434;9.116;2023-02-01T17:03:15;14.95;;;7.85;;
59970;SDS011;45825;45.434;9.116;2023-02-01T17:05:44;17.50;;;8.38;;
59970;SDS011;45825;45.434;9.116;2023-02-01T17:08:13;16.67;;;8.55;;
59970;SDS011;45825;45.434;9.116;2023-02-01T17:10:52;17.15;;;8.55;;
59970;SDS011;45825;45.434;9.116;2023-02-01T17:13:17;19.75;;;7.75;;
59970;SDS011;45825;45.434;9.116;2023-02-01T17:15:48;16.90;;;8.98;;
59970;SDS011;45825;45.434;9.116;2023-02-01T17:18:17;17.52;;;8.85;;
59970;SDS011;45825;45.434;9.116;2023-02-01T17:20:43;14.20;;;8.10;;
59970;SDS011;45825;45.434;9.116;2023-02-01T17:23:09;14.55;;;6.90;;
59970;SDS011;45825;45.434;9.116;2023-02-01T17:25:35;13.25;;;5.95;;
59970;SDS011;45825;45.434;9.116;2023-02-01T17:28:00;12.13;;;4.97;;
59970;SDS011;45825;45.434;9.116;2023-02-01T17:30:26;9.93;;;4.82;;
59970;SDS011;45825;45.434;9.116;2023-02-01T17:32:51;12.15;;;3.90;;
59970;SDS011;45825;45.434;9.116;2023-02-01T17:35:21;11.95;;;4.10;;
59970;SDS011;45825;45.434;9.116;2023-02-01T17:40:14;11.18;;;4.25;;
59970;SDS011;45825;45.434;9.116;2023-02-01T17:42:40;12.32;;;4.55;;
59970;SDS011;45825;45.434;9.116;2023-02-01T17:47:58;15.18;;;4.35;;
59970;SDS011;45825;45.434;9.116;2023-02-01T17:50:25;12.38;;;5.13;;